createdAt,value
2022-11-13T00:02:24.777Z,100.00
2022-11-13T00:05:15.909Z,100.00
2022-11-13T00:08:06.912Z,100.00
2022-11-13T00:11:03.470Z,100.00
2022-11-13T00:13:54.397Z,100.00
2022-11-13T00:16:45.418Z,100.00
2022-11-13T00:19:36.798Z,100.00
2022-11-13T00:22:27.618Z,100.00
2022-11-13T00:25:18.841Z,100.00
2022-11-13T00:28:10.609Z,100.00
2022-11-13T00:31:02.765Z,100.00
2022-11-13T00:37:04.610Z,99.45
2022-11-13T00:39:59.633Z,99.59
2022-11-13T00:42:50.756Z,99.54
2022-11-13T00:45:42.309Z,100.00
2022-11-13T00:48:33.344Z,100.00
2022-11-13T00:51:24.241Z,100.00
2022-11-13T00:54:15.279Z,100.00
2022-11-13T00:57:06.277Z,100.00
2022-11-13T00:59:57.202Z,100.00
2022-11-13T01:02:48.862Z,100.00
2022-11-13T01:05:41.576Z,100.00
2022-11-13T01:08:32.540Z,100.00
2022-11-13T01:11:25.448Z,100.00
2022-11-13T01:14:16.466Z,100.00
2022-11-13T01:17:07.632Z,100.00
2022-11-13T01:19:59.130Z,100.00
2022-11-13T01:22:49.951Z,99.54
2022-11-13T01:25:40.865Z,99.72
2022-11-13T01:28:32.069Z,99.61
2022-11-13T01:31:26.080Z,98.86
2022-11-13T01:34:17.446Z,97.30
2022-11-13T01:37:09.120Z,97.26
2022-11-13T01:39:59.961Z,98.02
2022-11-13T01:42:50.920Z,97.75
2022-11-13T01:46:13.925Z,96.29
2022-11-13T01:49:20.532Z,96.71
2022-11-13T01:52:15.461Z,97.29
2022-11-13T01:55:10.533Z,97.11
2022-11-13T01:58:02.475Z,95.57
2022-11-13T02:00:53.279Z,95.59
2022-11-13T02:03:44.278Z,96.37
2022-11-13T02:06:40.659Z,96.40
2022-11-13T02:09:35.916Z,96.90
2022-11-13T02:12:34.174Z,97.23
2022-11-13T02:15:28.085Z,95.97
2022-11-13T02:18:22.107Z,96.15
2022-11-13T02:21:28.546Z,96.30
2022-11-13T02:24:24.485Z,96.41
2022-11-13T02:27:21.103Z,97.54
2022-11-13T02:30:19.807Z,96.76
2022-11-13T02:33:25.341Z,97.77
2022-11-13T02:36:18.238Z,98.03
2022-11-13T02:39:12.788Z,99.34
2022-11-13T02:42:04.404Z,99.55
2022-11-13T02:44:55.601Z,99.55
2022-11-13T02:47:46.802Z,99.46
2022-11-13T02:50:38.272Z,99.72
2022-11-13T02:53:29.219Z,99.16
2022-11-13T02:56:20.281Z,98.57
2022-11-13T02:59:11.942Z,98.51
2022-11-13T03:02:02.759Z,99.25
2022-11-13T03:08:06.195Z,100.00
2022-11-13T03:10:56.957Z,100.00
2022-11-13T03:13:48.040Z,99.87
2022-11-13T03:16:39.759Z,100.00
2022-11-13T03:19:30.476Z,100.00
2022-11-13T03:22:21.583Z,99.80
2022-11-13T03:25:12.585Z,99.59
2022-11-13T03:28:03.713Z,99.64
2022-11-13T03:30:55.054Z,99.26
2022-11-13T03:33:46.786Z,99.16
2022-11-13T03:36:37.869Z,98.62
2022-11-13T03:39:28.782Z,98.16
2022-11-13T03:42:19.696Z,98.41
2022-11-13T03:45:10.556Z,98.79
2022-11-13T03:48:01.407Z,99.50
2022-11-13T03:50:54.741Z,99.90
2022-11-13T03:53:45.794Z,100.00
2022-11-13T03:56:36.703Z,99.99
2022-11-13T03:59:27.705Z,99.97
2022-11-13T04:02:18.642Z,99.41
2022-11-13T04:05:09.779Z,98.29
2022-11-13T04:08:01.389Z,98.08
2022-11-13T04:10:52.429Z,97.28
2022-11-13T04:13:43.370Z,97.41
2022-11-13T04:16:34.459Z,97.31
2022-11-13T04:19:25.509Z,97.56
2022-11-13T04:22:16.658Z,98.06
2022-11-13T04:25:09.017Z,97.50
2022-11-13T04:28:00.087Z,96.88
2022-11-13T04:30:53.070Z,95.70
2022-11-13T04:33:44.058Z,95.06
2022-11-13T04:36:35.157Z,96.35
2022-11-13T04:39:26.077Z,96.71
2022-11-13T04:42:36.411Z,97.23
2022-11-13T04:45:27.492Z,97.62
2022-11-13T04:48:18.276Z,97.51
2022-11-13T04:51:09.452Z,98.46
2022-11-13T04:54:00.597Z,98.88
2022-11-13T04:56:51.681Z,99.08
2022-11-13T04:59:43.369Z,99.78
2022-11-13T05:02:34.786Z,100.00
2022-11-13T05:05:25.730Z,100.00
2022-11-13T05:08:16.866Z,100.00
2022-11-13T05:11:07.871Z,100.00
2022-11-13T05:14:03.233Z,100.00
2022-11-13T05:16:55.152Z,100.00
2022-11-13T05:19:45.959Z,100.00
2022-11-13T05:22:37.061Z,100.00
2022-11-13T05:25:28.053Z,100.00
2022-11-13T05:28:19.114Z,99.24
2022-11-13T05:31:12.756Z,99.01
2022-11-13T05:34:06.148Z,99.10
2022-11-13T05:36:57.470Z,99.83
2022-11-13T05:39:48.526Z,100.00
2022-11-13T05:42:39.640Z,100.00
2022-11-13T05:45:30.677Z,100.00
2022-11-13T05:48:21.547Z,100.00
2022-11-13T05:51:15.323Z,100.00
2022-11-13T05:54:06.337Z,100.00
2022-11-13T05:56:57.364Z,100.00
2022-11-13T05:59:48.462Z,100.00
2022-11-13T06:02:39.542Z,100.00
2022-11-13T06:05:30.546Z,100.00
2022-11-13T06:08:22.053Z,100.00
2022-11-13T06:11:14.600Z,100.00
2022-11-13T06:14:05.641Z,100.00
2022-11-13T06:16:56.806Z,100.00
2022-11-13T06:19:47.912Z,100.00
2022-11-13T06:22:38.646Z,100.00
2022-11-13T06:25:30.295Z,100.00
2022-11-13T06:28:21.186Z,100.00
2022-11-13T06:31:14.552Z,100.00
2022-11-13T06:34:05.820Z,100.00
2022-11-13T06:36:56.350Z,100.00
2022-11-13T06:39:47.265Z,100.00
2022-11-13T06:42:39.415Z,100.00
2022-11-13T06:45:30.265Z,100.00
2022-11-13T06:48:21.668Z,100.00
2022-11-13T06:51:15.067Z,100.00
2022-11-13T06:54:06.214Z,100.00
2022-11-13T06:56:57.250Z,100.00
2022-11-13T06:59:49.089Z,100.00
2022-11-13T07:02:39.699Z,100.00
2022-11-13T07:05:30.797Z,100.00
2022-11-13T07:08:21.889Z,100.00
2022-11-13T07:11:15.336Z,100.00
2022-11-13T07:14:06.423Z,100.00
2022-11-13T07:17:09.211Z,100.00
2022-11-13T07:20:00.936Z,100.00
2022-11-13T07:22:55.127Z,100.00
2022-11-13T07:25:46.417Z,100.00
2022-11-13T07:28:37.571Z,99.98
2022-11-13T07:31:28.342Z,98.15
2022-11-13T07:34:20.004Z,97.19
2022-11-13T07:37:11.047Z,93.85
2022-11-13T07:40:01.958Z,91.59
2022-11-13T07:42:59.622Z,90.74
2022-11-13T07:45:53.904Z,90.24
2022-11-13T07:48:44.505Z,89.18
2022-11-13T07:51:36.248Z,90.04
2022-11-13T07:54:27.028Z,89.39
2022-11-13T07:57:18.253Z,89.10
2022-11-13T08:00:10.437Z,89.17
2022-11-13T08:03:05.929Z,87.92
2022-11-13T08:06:01.440Z,86.43
2022-11-13T08:08:53.055Z,87.17
2022-11-13T08:11:44.026Z,87.06
2022-11-13T08:14:35.013Z,86.15
2022-11-13T08:17:25.998Z,85.31
2022-11-13T08:20:17.264Z,86.04
2022-11-13T08:23:09.301Z,82.21
2022-11-13T08:26:05.045Z,82.96
2022-11-13T08:28:56.121Z,83.35
2022-11-13T08:31:47.136Z,83.88
2022-11-13T08:34:37.993Z,81.44
2022-11-13T08:37:28.990Z,81.92
2022-11-13T08:40:20.118Z,83.77
2022-11-13T08:43:11.709Z,82.29
2022-11-13T08:46:02.509Z,82.31
2022-11-13T08:48:53.613Z,82.17
2022-11-13T08:51:44.734Z,82.20
2022-11-13T08:54:35.662Z,82.71
2022-11-13T08:57:26.641Z,81.93
2022-11-13T09:00:18.865Z,83.00
2022-11-13T09:03:11.477Z,83.56
2022-11-13T09:06:05.448Z,82.65
2022-11-13T09:08:56.544Z,80.61
2022-11-13T09:11:47.763Z,79.12
2022-11-13T09:14:38.800Z,80.02
2022-11-13T09:17:30.572Z,78.75
2022-11-13T09:20:23.102Z,78.94
2022-11-13T09:23:14.433Z,78.93
2022-11-13T09:26:05.666Z,79.92
2022-11-13T09:28:56.701Z,80.07
2022-11-13T09:31:47.727Z,78.86
2022-11-13T09:34:39.469Z,80.34
2022-11-13T09:37:31.982Z,78.90
2022-11-13T09:40:28.714Z,76.55
2022-11-13T09:43:28.672Z,78.14
2022-11-13T09:46:25.834Z,77.59
2022-11-13T09:49:19.087Z,77.41
2022-11-13T09:52:14.914Z,75.73
2022-11-13T09:55:10.062Z,71.76
2022-11-13T09:58:07.272Z,72.65
2022-11-13T10:01:00.818Z,72.51
2022-11-13T10:04:03.943Z,72.31
2022-11-13T10:07:09.377Z,71.45
2022-11-13T10:10:40.758Z,71.16
2022-11-13T10:13:39.177Z,68.93
2022-11-13T10:16:33.927Z,68.92
2022-11-13T10:19:31.849Z,68.40
2022-11-13T10:22:34.364Z,69.03
2022-11-13T10:25:32.026Z,70.17
2022-11-13T10:31:45.842Z,71.55
2022-11-13T10:34:36.685Z,71.87
2022-11-13T10:37:44.166Z,70.81
2022-11-13T10:40:37.772Z,70.82
2022-11-13T10:43:28.831Z,71.68
2022-11-13T10:46:23.713Z,71.61
2022-11-13T10:49:19.489Z,72.60
2022-11-13T10:52:19.485Z,71.37
2022-11-13T10:55:17.706Z,71.23
2022-11-13T10:58:14.941Z,71.11
2022-11-13T11:01:13.952Z,72.27
2022-11-13T11:04:05.760Z,72.44
2022-11-13T11:07:20.294Z,72.40
2022-11-13T11:10:22.419Z,73.22
2022-11-13T11:13:22.726Z,73.96
2022-11-13T11:16:19.605Z,73.28
2022-11-13T11:19:14.368Z,73.38
2022-11-13T11:22:13.067Z,74.15
2022-11-13T11:25:11.040Z,73.82
2022-11-13T11:28:07.176Z,74.10
2022-11-13T11:31:09.443Z,74.40
2022-11-13T11:34:09.760Z,74.74
2022-11-13T11:37:06.605Z,73.77
2022-11-13T11:40:03.458Z,74.71
2022-11-13T11:43:03.693Z,73.35
2022-11-13T11:45:54.708Z,74.25
2022-11-13T11:48:46.514Z,74.62
2022-11-13T11:51:50.713Z,75.39
2022-11-13T11:54:43.394Z,74.59
2022-11-13T11:57:46.087Z,74.69
2022-11-13T12:00:45.247Z,73.25
2022-11-13T12:03:59.919Z,73.13
2022-11-13T12:07:04.986Z,73.95
2022-11-13T12:10:24.209Z,73.40
2022-11-13T12:13:28.079Z,73.49
2022-11-13T12:16:27.601Z,73.56
2022-11-13T12:19:29.749Z,73.48
2022-11-13T12:22:30.568Z,74.46
2022-11-13T12:25:27.742Z,73.35
2022-11-13T12:28:25.430Z,73.52
2022-11-13T12:31:38.268Z,74.23
2022-11-13T12:34:35.766Z,74.45
2022-11-13T12:37:33.848Z,74.30
2022-11-13T12:40:31.759Z,74.81
2022-11-13T12:43:47.692Z,75.31
2022-11-13T12:46:40.364Z,75.14
2022-11-13T12:49:34.345Z,74.78
2022-11-13T12:52:25.502Z,75.03
2022-11-13T12:55:26.525Z,75.17
2022-11-13T12:58:24.129Z,75.34
2022-11-13T13:01:19.132Z,75.30
2022-11-13T13:04:43.279Z,74.33
2022-11-13T13:07:56.175Z,74.74
2022-11-13T13:11:09.719Z,74.58
2022-11-13T13:14:25.121Z,74.60
2022-11-13T13:17:19.625Z,74.80
2022-11-13T13:20:30.246Z,76.10
2022-11-13T13:23:27.498Z,76.66
2022-11-13T13:26:20.600Z,76.45
2022-11-13T13:29:17.946Z,75.88
2022-11-13T13:32:20.624Z,75.99
2022-11-13T13:35:17.100Z,75.98
2022-11-13T13:38:17.580Z,76.28
2022-11-13T13:41:19.783Z,75.18
2022-11-13T13:44:48.952Z,76.42
2022-11-13T13:47:44.584Z,75.95
2022-11-13T13:50:43.390Z,76.30
2022-11-13T13:53:36.432Z,77.46
2022-11-13T13:56:27.194Z,78.02
2022-11-13T13:59:20.765Z,77.57
2022-11-13T14:02:17.100Z,78.50
2022-11-13T14:05:23.499Z,78.88
2022-11-13T14:08:18.361Z,78.92
2022-11-13T14:11:20.817Z,79.38
2022-11-13T14:14:18.293Z,79.95
2022-11-13T14:17:11.096Z,80.11
2022-11-13T14:20:02.037Z,79.66
2022-11-13T14:22:56.485Z,79.95
2022-11-13T14:25:48.803Z,79.76
2022-11-13T14:28:53.154Z,79.19
2022-11-13T14:31:45.274Z,79.39
2022-11-13T14:34:37.694Z,80.32
2022-11-13T14:37:32.789Z,80.72
2022-11-13T14:40:26.749Z,80.80
2022-11-13T14:43:24.747Z,81.19
2022-11-13T14:46:27.307Z,80.99
2022-11-13T14:49:27.174Z,81.19
2022-11-13T14:52:23.508Z,81.20
2022-11-13T14:55:22.520Z,82.34
2022-11-13T14:58:13.671Z,83.14
2022-11-13T15:01:15.945Z,83.67
2022-11-13T15:04:07.602Z,84.01
2022-11-13T15:07:00.901Z,83.55
2022-11-13T15:09:52.586Z,83.32
2022-11-13T15:12:43.311Z,83.35
2022-11-13T15:15:34.222Z,83.22
2022-11-13T15:18:25.724Z,82.70
2022-11-13T15:21:17.904Z,82.60
2022-11-13T15:24:10.643Z,82.17
2022-11-13T15:27:01.722Z,82.18
2022-11-13T15:29:52.714Z,82.01
2022-11-13T15:32:44.122Z,82.24
2022-11-13T15:35:35.236Z,81.56
2022-11-13T15:38:27.094Z,82.50
2022-11-13T15:41:20.141Z,83.29
2022-11-13T15:44:14.697Z,83.75
2022-11-13T15:47:18.877Z,84.45
2022-11-13T15:50:13.844Z,84.94
2022-11-13T15:53:08.363Z,85.69
2022-11-13T15:56:02.502Z,86.46
2022-11-13T15:58:53.470Z,86.54
2022-11-13T16:01:44.646Z,87.33
2022-11-13T16:04:55.018Z,86.28
2022-11-13T16:07:46.925Z,86.65
2022-11-13T16:10:37.783Z,86.55
2022-11-13T16:13:29.778Z,86.07
2022-11-13T16:16:23.461Z,86.43
2022-11-13T16:19:21.992Z,85.98
2022-11-13T16:22:17.516Z,85.57
2022-11-13T16:25:11.321Z,85.26
2022-11-13T16:28:02.649Z,85.35
2022-11-13T16:30:54.621Z,86.04
2022-11-13T16:33:45.743Z,86.54
2022-11-13T16:36:37.132Z,86.59
2022-11-13T16:39:28.375Z,86.27
2022-11-13T16:42:19.437Z,85.69
2022-11-13T16:45:10.521Z,86.27
2022-11-13T16:48:02.294Z,86.34
2022-11-13T16:50:52.922Z,86.29
2022-11-13T16:53:43.939Z,86.57
2022-11-13T16:56:34.941Z,85.67
2022-11-13T16:59:26.051Z,84.64
2022-11-13T17:02:18.459Z,84.90
2022-11-13T17:05:13.166Z,84.41
2022-11-13T17:08:05.346Z,84.49
2022-11-13T17:10:56.538Z,84.39
2022-11-13T17:13:49.493Z,84.81
2022-11-13T17:16:40.522Z,85.18
2022-11-13T17:19:31.688Z,85.69
2022-11-13T17:22:23.239Z,85.68
2022-11-13T17:25:15.962Z,86.59
2022-11-13T17:28:10.997Z,87.36
2022-11-13T17:31:03.211Z,87.92
2022-11-13T17:33:54.760Z,87.26
2022-11-13T17:36:45.826Z,86.83
2022-11-13T17:39:37.554Z,85.79
2022-11-13T17:42:28.797Z,85.74
2022-11-13T17:45:19.683Z,86.17
2022-11-13T17:48:10.650Z,86.17
2022-11-13T17:51:03.898Z,85.76
2022-11-13T17:53:56.457Z,86.16
2022-11-13T17:56:47.964Z,86.30
2022-11-13T17:59:40.502Z,86.62
2022-11-13T18:02:31.729Z,86.20
2022-11-13T18:05:22.764Z,85.95
2022-11-13T18:08:13.830Z,87.36
2022-11-13T18:11:08.841Z,87.88
2022-11-13T18:14:00.410Z,86.83
2022-11-13T18:16:51.502Z,87.26
2022-11-13T18:19:42.589Z,88.15
2022-11-13T18:22:33.626Z,87.83
2022-11-13T18:25:24.963Z,88.95
2022-11-13T18:28:16.701Z,88.81
2022-11-13T18:31:10.447Z,88.67
2022-11-13T18:34:03.482Z,88.69
2022-11-13T18:36:54.544Z,88.32
2022-11-13T18:39:45.858Z,87.79
2022-11-13T18:42:36.887Z,88.57
2022-11-13T18:45:27.800Z,88.29
2022-11-13T18:48:19.634Z,88.86
2022-11-13T18:51:13.972Z,88.68
2022-11-13T18:54:09.721Z,89.44
2022-11-13T18:57:00.893Z,89.02
2022-11-13T18:59:51.838Z,89.43
2022-11-13T19:02:42.993Z,89.85
2022-11-13T19:05:34.450Z,89.24
2022-11-13T19:08:25.788Z,89.59
2022-11-13T19:11:17.997Z,89.12
2022-11-13T19:14:10.331Z,89.57
2022-11-13T19:17:01.417Z,88.88
2022-11-13T19:19:52.364Z,89.43
2022-11-13T19:22:44.210Z,89.54
2022-11-13T19:25:35.246Z,90.03
2022-11-13T19:28:26.808Z,90.35
2022-11-13T19:31:19.593Z,89.25
2022-11-13T19:34:11.583Z,89.71
2022-11-13T19:37:03.052Z,90.21
2022-11-13T19:39:54.772Z,89.60
2022-11-13T19:42:45.378Z,90.08
2022-11-13T19:45:36.482Z,90.45
2022-11-13T19:48:27.421Z,90.08
2022-11-13T19:51:21.358Z,90.19
2022-11-13T19:54:12.298Z,89.24
2022-11-13T19:57:03.854Z,89.42
2022-11-13T19:59:54.606Z,90.73
2022-11-13T20:02:45.898Z,89.59
2022-11-13T20:05:40.196Z,89.89
2022-11-13T20:08:33.209Z,90.57
2022-11-13T20:11:24.222Z,90.92
2022-11-13T20:14:16.368Z,91.66
2022-11-13T20:17:07.221Z,91.22
2022-11-13T20:19:58.170Z,91.78
2022-11-13T20:22:49.299Z,90.72
2022-11-13T20:25:40.286Z,89.93
2022-11-13T20:28:31.757Z,90.66
2022-11-13T20:31:24.396Z,90.11
2022-11-13T20:34:15.445Z,91.12
2022-11-13T20:37:06.485Z,91.15
2022-11-13T20:39:57.341Z,89.96
2022-11-13T20:42:48.122Z,90.31
2022-11-13T20:45:39.062Z,91.11
2022-11-13T20:48:30.899Z,90.96
2022-11-13T20:51:24.202Z,91.30
2022-11-13T20:54:14.924Z,90.61
2022-11-13T20:57:06.049Z,91.10
2022-11-13T20:59:58.077Z,91.07
2022-11-13T21:02:49.973Z,91.25
2022-11-13T21:05:41.569Z,90.91
2022-11-13T21:08:33.005Z,91.70
2022-11-13T21:11:25.105Z,92.30
2022-11-13T21:14:16.071Z,91.72
2022-11-13T21:17:06.873Z,92.21
2022-11-13T21:19:57.993Z,91.29
2022-11-13T21:22:49.206Z,91.93
2022-11-13T21:25:40.525Z,92.09
2022-11-13T21:28:33.714Z,92.40
2022-11-13T21:31:25.093Z,93.04
2022-11-13T21:34:16.164Z,92.46
2022-11-13T21:37:07.493Z,92.42
2022-11-13T21:39:59.029Z,92.16
2022-11-13T21:42:50.084Z,92.23
2022-11-13T21:45:41.117Z,92.85
2022-11-13T21:48:33.500Z,93.19
2022-11-13T21:51:24.549Z,93.12
2022-11-13T21:54:15.350Z,93.00
2022-11-13T21:57:06.958Z,93.72
2022-11-13T21:59:58.002Z,94.18
2022-11-13T22:02:48.655Z,94.36
2022-11-13T22:05:39.869Z,94.40
2022-11-13T22:08:31.416Z,94.67
2022-11-13T22:11:23.170Z,94.48
2022-11-13T22:14:14.789Z,93.63
2022-11-13T22:17:05.798Z,93.94
2022-11-13T22:19:56.814Z,94.42
2022-11-13T22:22:47.640Z,94.14
2022-11-13T22:25:38.551Z,94.17
2022-11-13T22:28:30.417Z,93.22
2022-11-13T22:31:24.904Z,93.14
2022-11-13T22:34:16.147Z,92.78
2022-11-13T22:37:07.084Z,93.53
2022-11-13T22:39:58.112Z,94.15
2022-11-13T22:42:49.321Z,95.35
2022-11-13T22:45:40.225Z,94.54
2022-11-13T22:48:32.530Z,93.57
2022-11-13T22:51:25.288Z,94.62
2022-11-13T22:54:16.168Z,95.21
2022-11-13T22:57:07.215Z,94.57
2022-11-13T22:59:58.130Z,94.29
2022-11-13T23:02:49.096Z,94.05
2022-11-13T23:05:40.839Z,93.99
2022-11-13T23:08:37.485Z,94.47
2022-11-13T23:11:30.609Z,94.60
2022-11-13T23:14:21.488Z,95.37
2022-11-13T23:17:12.514Z,95.55
2022-11-13T23:20:04.085Z,95.41
2022-11-13T23:22:55.533Z,95.46
2022-11-13T23:25:46.742Z,95.16
2022-11-13T23:28:38.021Z,94.43
2022-11-13T23:31:29.142Z,94.46
2022-11-13T23:34:38.445Z,94.33
2022-11-13T23:37:31.059Z,94.89
2022-11-13T23:40:22.770Z,94.74
2022-11-13T23:43:13.896Z,94.70
2022-11-13T23:46:05.168Z,94.28
2022-11-13T23:48:56.145Z,95.54
2022-11-13T23:51:46.771Z,96.13
2022-11-13T23:54:37.749Z,96.02
2022-11-13T23:57:29.446Z,95.98
